Time;durP1;ratioP1;P1;durP2;ratioP2;P2;SDS_P1;SDS_P2;PMS_P1;PMS_P2;Temp;Humidity;BMP_temperature;BMP_pressure;BME280_temperature;BME280_humidity;BME280_pressure;Samples;Min_cycle;Max_cycle;Signal;HPM_P1;HPM_P2
2021/04/21 00:01:34;;;;;;;5.88;5.30;;;;;;;;;;5015172;28;20033;-77
2021/04/21 00:04:00;;;;;;;5.75;4.97;;;;;;;;;;5033122;28;20040;-78
2021/04/21 00:06:25;;;;;;;6.22;5.63;;;;;;;;;;5015696;28;20029;-79
2021/04/21 00:08:53;;;;;;;6.72;5.70;;;;;;;;;;5032934;28;20033;-77
2021/04/21 00:11:18;;;;;;;7.82;5.40;;;;;;;;;;5033307;28;20102;-78
2021/04/21 00:13:45;;;;;;;6.45;5.15;;;;;;;;;;5032906;28;20088;-78
2021/04/21 00:16:12;;;;;;;7.68;5.63;;;;;;;;;;5032336;28;20444;-78
2021/04/21 00:18:41;;;;;;;6.72;5.85;;;;;;;;;;5032901;28;20041;-77
2021/04/21 00:21:07;;;;;;;6.07;5.45;;;;;;;;;;5015156;28;20030;-76
2021/04/21 00:23:35;;;;;;;8.45;5.57;;;;;;;;;;5033070;28;20527;-77
2021/04/21 00:26:02;;;;;;;5.82;5.32;;;;;;;;;;5032635;28;20030;-78
2021/04/21 00:28:32;;;;;;;6.13;5.07;;;;;;;;;;5033082;28;20029;-76
2021/04/21 00:31:03;;;;;;;7.00;5.40;;;;;;;;;;5032266;28;20057;-77
2021/04/21 00:33:29;;;;;;;;;;;;;;;;;;5015384;28;20477;-77
2021/04/21 00:35:56;;;;;;;6.25;5.30;;;;;;;;;;5032563;28;20005;-75
2021/04/21 00:38:22;;;;;;;8.20;6.05;;;;;;;;;;5033586;28;20405;-75
2021/04/21 00:40:52;;;;;;;7.10;5.53;;;;;;;;;;5032948;28;20385;-76
2021/04/21 00:43:59;;;;;;;7.90;5.18;;;;;;;;;;5032905;28;20056;-77
2021/04/21 00:46:36;;;;;;;6.28;5.55;;;;;;;;;;5032538;28;20017;-76
2021/04/21 00:49:15;;;;;;;6.18;5.32;;;;;;;;;;5032172;28;20037;-77
2021/04/21 00:51:43;;;;;;;5.82;5.22;;;;;;;;;;5032382;28;20037;-76
2021/04/21 00:54:14;;;;;;;6.20;5.60;;;;;;;;;;5032482;28;20513;-77
2021/04/21 00:56:48;;;;;;;5.80;5.20;;;;;;;;;;5032456;28;20025;-77
2021/04/21 00:59:32;;;;;;;8.20;5.10;;;;;;;;;;5032274;28;20440;-77
2021/04/21 01:02:00;;;;;;;5.47;4.93;;;;;;;;;;5032280;28;20029;-77
2021/04/21 01:04:26;;;;;;;6.88;5.57;;;;;;;;;;5032429;28;20395;-76
2021/04/21 01:06:54;;;;;;;5.95;5.35;;;;;;;;;;5032212;28;20091;-78
2021/04/21 01:09:23;;;;;;;6.30;5.32;;;;;;;;;;5032547;28;20022;-76
2021/04/21 01:11:53;;;;;;;5.43;4.93;;;;;;;;;;5032197;28;20025;-79
2021/04/21 01:14:22;;;;;;;7.80;5.40;;;;;;;;;;5032093;28;20104;-77
2021/04/21 01:16:53;;;;;;;7.70;5.43;;;;;;;;;;5031864;28;20323;-76
2021/04/21 01:19:52;;;;;;;6.03;5.43;;;;;;;;;;5032055;28;20032;-76
2021/04/21 01:22:47;;;;;;;5.25;4.70;;;;;;;;;;5032118;28;20060;-76
2021/04/21 01:25:23;;;;;;;6.55;5.43;;;;;;;;;;5032029;28;20159;-78
2021/04/21 01:28:10;;;;;;;5.00;4.50;;;;;;;;;;5031294;28;20026;-77
2021/04/21 01:30:42;;;;;;;7.03;5.05;;;;;;;;;;5031727;28;20018;-78
2021/04/21 01:33:21;;;;;;;5.75;5.18;;;;;;;;;;5031828;28;20541;-75
2021/04/21 01:36:05;;;;;;;6.10;5.07;;;;;;;;;;5032022;28;20025;-76
2021/04/21 01:38:32;;;;;;;6.32;5.70;;;;;;;;;;5032163;28;20025;-76
2021/04/21 01:41:03;;;;;;;7.03;5.35;;;;;;;;;;5031583;28;20090;-76
2021/04/21 01:43:34;;;;;;;6.85;5.25;;;;;;;;;;5031505;28;20155;-77
2021/04/21 01:46:02;;;;;;;6.05;5.20;;;;;;;;;;5031608;28;20033;-77
2021/04/21 01:48:31;;;;;;;6.00;5.40;;;;;;;;;;5031912;28;20029;-76
2021/04/21 01:51:02;;;;;;;7.07;5.60;;;;;;;;;;5031546;28;20022;-76
2021/04/21 01:53:27;;;;;;;;;;;;;;;;;;5032428;28;20033;-76
2021/04/21 01:56:05;;;;;;;6.10;5.17;;;;;;;;;;5031612;28;19931;-77
2021/04/21 01:58:48;;;;;;;6.93;5.70;;;;;;;;;;5031470;28;20265;-77
2021/04/21 02:01:57;;;;;;;8.40;6.15;;;;;;;;;;5031329;28;20096;-75
2021/04/21 02:04:41;;;;;;;6.47;5.28;;;;;;;;;;4932532;29;20051;-77
2021/04/21 02:07:24;;;;;;;7.78;6.20;;;;;;;;;;4932330;29;20023;-78
2021/04/21 02:10:04;;;;;;;7.57;6.10;;;;;;;;;;4932298;29;20043;-76
2021/04/21 02:12:37;;;;;;;9.10;5.97;;;;;;;;;;4932274;29;20046;-77
2021/04/21 02:15:14;;;;;;;9.02;6.40;;;;;;;;;;4932273;29;20071;-77
2021/04/21 02:17:50;;;;;;;8.75;6.35;;;;;;;;;;4932420;29;20035;-76
2021/04/21 02:20:31;;;;;;;6.38;5.60;;;;;;;;;;4932231;29;20076;-75
2021/04/21 02:23:04;;;;;;;7.45;6.30;;;;;;;;;;4932672;29;20090;-75
2021/04/21 02:26:04;;;;;;;9.57;6.55;;;;;;;;;;4933081;29;20118;-75
2021/04/21 02:28:44;;;;;;;8.00;6.00;;;;;;;;;;4916406;29;20615;-76
2021/04/21 02:31:43;;;;;;;7.38;6.07;;;;;;;;;;4932188;29;20028;-75
2021/04/21 02:34:27;;;;;;;7.70;5.97;;;;;;;;;;4940718;28;20035;-77
2021/04/21 02:37:04;;;;;;;7.88;6.43;;;;;;;;;;5013727;28;20022;-77
2021/04/21 02:39:56;;;;;;;7.10;6.40;;;;;;;;;;5031714;28;20032;-76
2021/04/21 02:42:40;;;;;;;7.60;6.75;;;;;;;;;;5016717;28;20041;-75
2021/04/21 02:45:18;;;;;;;9.32;6.93;;;;;;;;;;5034532;28;20096;-75
2021/04/21 02:47:49;;;;;;;7.97;6.05;;;;;;;;;;5034931;28;20030;-76
2021/04/21 02:50:24;;;;;;;8.30;6.40;;;;;;;;;;5034645;28;20022;-76
2021/04/21 02:53:18;;;;;;;8.25;7.32;;;;;;;;;;5034481;28;20055;-76
2021/04/21 02:56:12;;;;;;;8.13;7.38;;;;;;;;;;5034556;28;20017;-78
2021/04/21 02:58:49;;;;;;;8.82;7.18;;;;;;;;;;5034489;28;20021;-78
2021/04/21 03:01:52;;;;;;;8.35;7.35;;;;;;;;;;5034079;28;20030;-78
2021/04/21 03:04:35;;;;;;;10.27;7.78;;;;;;;;;;5034577;28;20123;-78
2021/04/21 03:07:04;;;;;;;8.43;7.30;;;;;;;;;;5034384;28;20042;-76
2021/04/21 03:09:50;;;;;;;8.55;6.80;;;;;;;;;;5034463;28;20476;-76
2021/04/21 03:12:22;;;;;;;8.82;7.57;;;;;;;;;;5033924;28;20025;-77
2021/04/21 03:14:54;;;;;;;9.45;7.30;;;;;;;;;;5034396;28;20075;-76
2021/04/21 03:17:20;;;;;;;8.98;7.40;;;;;;;;;;5034243;28;20051;-77
2021/04/21 03:19:54;;;;;;;8.40;6.88;;;;;;;;;;5034338;28;20025;-78
2021/04/21 03:22:22;;;;;;;9.82;7.45;;;;;;;;;;5034025;28;20021;-76
2021/04/21 03:24:57;;;;;;;8.07;7.13;;;;;;;;;;5033861;28;20025;-78
2021/04/21 03:27:27;;;;;;;8.90;7.47;;;;;;;;;;5016364;28;20021;-76
2021/04/21 03:29:54;;;;;;;8.75;6.80;;;;;;;;;;5034164;28;20097;-76
2021/04/21 03:32:25;;;;;;;8.35;7.53;;;;;;;;;;5034079;28;20034;-77
2021/04/21 03:34:52;;;;;;;9.75;7.65;;;;;;;;;;5016291;28;20050;-77
2021/04/21 03:37:45;;;;;;;8.60;7.65;;;;;;;;;;5033901;28;20025;-78
2021/04/21 03:40:11;;;;;;;10.32;7.70;;;;;;;;;;5033347;28;20021;-77
2021/04/21 03:42:38;;;;;;;10.95;7.47;;;;;;;;;;5033583;28;20533;-77
2021/04/21 03:45:05;;;;;;;8.50;7.60;;;;;;;;;;5033861;28;20100;-77
2021/04/21 03:47:31;;;;;;;9.98;8.23;;;;;;;;;;5033562;28;20040;-78
2021/04/21 03:49:57;;;;;;;8.50;7.68;;;;;;;;;;5033652;28;20381;-77
2021/04/21 03:52:26;;;;;;;9.95;8.65;;;;;;;;;;5032560;28;20025;-76
2021/04/21 03:54:53;;;;;;;10.95;8.45;;;;;;;;;;5033112;28;20028;-76
2021/04/21 03:57:19;;;;;;;9.68;8.68;;;;;;;;;;5033277;28;20489;-76
2021/04/21 03:59:48;;;;;;;12.52;8.95;;;;;;;;;;5015577;28;20449;-75
2021/04/21 04:02:14;;;;;;;9.30;8.38;;;;;;;;;;5033091;28;20552;-76
2021/04/21 04:04:47;;;;;;;11.20;9.27;;;;;;;;;;5033800;28;20032;-75
2021/04/21 04:07:15;;;;;;;10.07;9.07;;;;;;;;;;5034075;28;20022;-76
2021/04/21 04:09:45;;;;;;;10.90;8.98;;;;;;;;;;5033482;28;20103;-76
2021/04/21 04:12:12;;;;;;;13.13;9.20;;;;;;;;;;5033499;28;20029;-78
2021/04/21 04:14:39;;;;;;;9.10;8.18;;;;;;;;;;5033229;28;20155;-77
2021/04/21 04:17:06;;;;;;;10.25;9.23;;;;;;;;;;5033321;28;20030;-77
2021/04/21 04:19:33;;;;;;;10.00;8.93;;;;;;;;;;5032942;28;20512;-77
2021/04/21 04:22:06;;;;;;;10.77;8.73;;;;;;;;;;5033033;28;20036;-77
2021/04/21 04:24:43;;;;;;;9.77;8.77;;;;;;;;;;5032698;28;20026;-77
2021/04/21 04:27:22;;;;;;;12.63;9.25;;;;;;;;;;5032656;28;20503;-76
2021/04/21 04:29:49;;;;;;;11.38;9.25;;;;;;;;;;5033121;28;20105;-76
2021/04/21 04:32:19;;;;;;;9.98;8.85;;;;;;;;;;5032547;28;20029;-75
2021/04/21 04:34:50;;;;;;;10.57;9.48;;;;;;;;;;5032814;28;20018;-76
2021/04/21 04:37:18;;;;;;;10.18;9.18;;;;;;;;;;5032272;28;20096;-76
2021/04/21 04:39:44;;;;;;;10.68;9.57;;;;;;;;;;5015014;28;20022;-76
2021/04/21 04:42:11;;;;;;;11.45;10.13;;;;;;;;;;5014830;28;20033;-77
2021/04/21 04:44:42;;;;;;;10.32;9.15;;;;;;;;;;5032613;28;20086;-76
2021/04/21 04:47:19;;;;;;;10.43;8.65;;;;;;;;;;5032369;28;20024;-76
2021/04/21 04:50:15;;;;;;;11.52;9.32;;;;;;;;;;5014854;28;20032;-76
2021/04/21 04:52:44;;;;;;;12.32;8.57;;;;;;;;;;5001967;28;20041;-75
2021/04/21 04:55:12;;;;;;;10.48;8.18;;;;;;;;;;5032418;28;20026;-76
2021/04/21 04:57:42;;;;;;;10.63;9.00;;;;;;;;;;5032400;28;20509;-76
2021/04/21 05:00:10;;;;;;;10.32;8.35;;;;;;;;;;5031876;28;20378;-76
2021/04/21 05:02:53;;;;;;;10.10;8.63;;;;;;;;;;5032517;28;20032;-75
2021/04/21 05:05:20;;;;;;;12.52;9.55;;;;;;;;;;5031959;28;20105;-77
2021/04/21 05:07:52;;;;;;;10.88;8.65;;;;;;;;;;5032120;28;20508;-77
2021/04/21 05:10:42;;;;;;;11.38;9.30;;;;;;;;;;5014298;28;20108;-76
2021/04/21 05:13:13;;;;;;;9.75;8.75;;;;;;;;;;5020404;28;20036;-77
2021/04/21 05:15:38;;;;;;;12.68;10.20;;;;;;;;;;5032820;28;20482;-76
2021/04/21 05:18:22;;;;;;;12.20;9.60;;;;;;;;;;5032238;28;20021;-77
2021/04/21 05:21:23;;;;;;;11.30;9.90;;;;;;;;;;5031813;28;20025;-76
2021/04/21 05:23:57;;;;;;;11.70;10.27;;;;;;;;;;5032280;28;20032;-76
2021/04/21 05:27:05;;;;;;;14.70;10.43;;;;;;;;;;5031970;28;20029;-76
2021/04/21 05:30:01;;;;;;;11.57;9.55;;;;;;;;;;5031982;28;20465;-77
2021/04/21 05:33:00;;;;;;;11.27;9.55;;;;;;;;;;5023298;28;20025;-78
2021/04/21 05:36:10;;;;;;;12.60;10.27;;;;;;;;;;5045814;28;20025;-77
2021/04/21 05:38:54;;;;;;;12.30;11.00;;;;;;;;;;4932637;29;20416;-77
2021/04/21 05:41:38;;;;;;;13.77;11.77;;;;;;;;;;4939188;28;20027;-77
2021/04/21 05:44:22;;;;;;;14.77;11.63;;;;;;;;;;4951760;29;20547;-77
2021/04/21 05:47:29;;;;;;;16.58;13.27;;;;;;;;;;4951830;29;20143;-75
2021/04/21 05:50:15;;;;;;;18.10;14.13;;;;;;;;;;4947347;28;20163;-75
2021/04/21 05:53:02;;;;;;;14.50;13.02;;;;;;;;;;4956422;28;20039;-76
2021/04/21 05:55:50;;;;;;;14.52;11.75;;;;;;;;;;4952965;29;20107;-76
2021/04/21 05:58:53;;;;;;;14.15;10.18;;;;;;;;;;4936404;29;20028;-75
2021/04/21 06:01:24;;;;;;;12.40;10.20;;;;;;;;;;4951293;28;20043;-76
2021/04/21 06:03:52;;;;;;;13.32;10.10;;;;;;;;;;4950972;29;20031;-75
2021/04/21 06:06:18;;;;;;;12.32;10.40;;;;;;;;;;4950332;28;20039;-75
2021/04/21 06:08:43;;;;;;;13.75;11.25;;;;;;;;;;4950498;28;20039;-76
2021/04/21 06:11:19;;;;;;;12.55;11.25;;;;;;;;;;4949789;29;20475;-77
2021/04/21 06:13:46;;;;;;;11.68;10.48;;;;;;;;;;4951667;28;20031;-76
2021/04/21 06:16:17;;;;;;;10.55;8.73;;;;;;;;;;5052234;28;20044;-76
2021/04/21 06:18:43;;;;;;;;;;;;;;;;;;5055054;28;20024;-75
2021/04/21 06:21:15;;;;;;;11.15;8.65;;;;;;;;;;5054169;28;19917;-76
2021/04/21 06:23:41;;;;;;;9.82;8.38;;;;;;;;;;5035732;28;20033;-76
2021/04/21 06:26:06;;;;;;;10.05;9.05;;;;;;;;;;5055293;28;20023;-76
2021/04/21 06:28:32;;;;;;;9.80;8.73;;;;;;;;;;5037020;28;20100;-77
2021/04/21 06:31:12;;;;;;;9.82;8.65;;;;;;;;;;5054614;28;20020;-77
2021/04/21 06:33:44;;;;;;;10.70;9.00;;;;;;;;;;5054120;28;20040;-75
2021/04/21 06:36:12;;;;;;;10.30;9.00;;;;;;;;;;5019370;28;20025;-76
2021/04/21 06:38:39;;;;;;;11.05;8.55;;;;;;;;;;5029165;28;20029;-75
2021/04/21 06:41:05;;;;;;;10.65;9.02;;;;;;;;;;5054920;28;20493;-76
2021/04/21 06:43:35;;;;;;;9.95;8.80;;;;;;;;;;5023284;28;20117;-76
2021/04/21 06:46:01;;;;;;;10.63;9.52;;;;;;;;;;5013289;28;20038;-75
2021/04/21 06:48:33;;;;;;;12.95;10.65;;;;;;;;;;5014744;28;20386;-75
2021/04/21 06:51:09;;;;;;;11.35;9.70;;;;;;;;;;5015043;28;20100;-76
2021/04/21 06:53:34;;;;;;;14.70;10.30;;;;;;;;;;5014729;28;20510;-76
2021/04/21 06:56:00;;;;;;;15.52;10.32;;;;;;;;;;5014894;28;20032;-76
2021/04/21 06:58:29;;;;;;;10.90;9.80;;;;;;;;;;5014694;28;20030;-75
2021/04/21 07:00:56;;;;;;;10.90;9.80;;;;;;;;;;5014326;28;20030;-75
2021/04/21 07:03:22;;;;;;;10.73;9.30;;;;;;;;;;5014448;28;20033;-74
2021/04/21 07:05:48;;;;;;;13.50;9.63;;;;;;;;;;5014726;28;20052;-74
2021/04/21 07:08:18;;;;;;;10.77;9.27;;;;;;;;;;5014780;28;20497;-76
2021/04/21 07:10:45;;;;;;;10.07;9.10;;;;;;;;;;5014014;28;20029;-75
2021/04/21 07:13:19;;;;;;;10.30;9.10;;;;;;;;;;5012894;28;20065;-74
2021/04/21 07:15:45;;;;;;;11.20;9.35;;;;;;;;;;5006507;28;20034;-74
2021/04/21 07:18:14;;;;;;;10.50;8.52;;;;;;;;;;4999078;28;20413;-76
2021/04/21 07:20:40;;;;;;;13.88;9.23;;;;;;;;;;5011096;28;20030;-75
2021/04/21 07:23:07;;;;;;;11.32;9.38;;;;;;;;;;5008657;28;20022;-76
2021/04/21 07:25:33;;;;;;;10.48;9.48;;;;;;;;;;4994946;28;20038;-76
2021/04/21 07:27:58;;;;;;;11.27;9.57;;;;;;;;;;5010966;28;20026;-76
2021/04/21 07:30:28;;;;;;;8.35;6.50;;;;;;;;;;5008927;28;20022;-76
2021/04/21 07:32:55;;;;;;;6.95;6.25;;;;;;;;;;5007897;28;20502;-77
2021/04/21 07:35:24;;;;;;;6.97;6.28;;;;;;;;;;5016045;28;20117;-75
2021/04/21 07:37:51;;;;;;;8.63;6.43;;;;;;;;;;5010520;28;20494;-74
2021/04/21 07:40:30;;;;;;;6.85;6.13;;;;;;;;;;5012155;28;20029;-75
2021/04/21 07:43:06;;;;;;;7.78;6.28;;;;;;;;;;5012926;28;20403;-77
2021/04/21 07:45:48;;;;;;;8.00;6.07;;;;;;;;;;5013655;28;20080;-75
2021/04/21 07:48:32;;;;;;;7.40;5.90;;;;;;;;;;5012679;28;20030;-76
2021/04/21 07:50:59;;;;;;;8.63;5.88;;;;;;;;;;5010243;28;20489;-77
2021/04/21 07:53:24;;;;;;;7.28;5.65;;;;;;;;;;5013367;28;20026;-78
2021/04/21 07:56:01;;;;;;;6.80;5.55;;;;;;;;;;5014819;28;20033;-80
2021/04/21 07:58:27;;;;;;;6.10;5.50;;;;;;;;;;5018558;28;20485;-83
2021/04/21 08:00:52;;;;;;;6.72;5.85;;;;;;;;;;5014363;28;20026;-81
2021/04/21 08:03:25;;;;;;;7.07;5.10;;;;;;;;;;5008490;28;20033;-78
2021/04/21 08:05:54;;;;;;;8.93;5.10;;;;;;;;;;5006412;28;20026;-79
2021/04/21 08:08:33;;;;;;;6.30;5.15;;;;;;;;;;5011030;28;20021;-78
2021/04/21 08:11:00;;;;;;;5.50;5.00;;;;;;;;;;5013386;28;20500;-79
2021/04/21 08:13:58;;;;;;;8.30;6.90;;;;;;;;;;5012234;28;20030;-77
2021/04/21 08:16:27;;;;;;;5.00;4.50;;;;;;;;;;4943957;29;20530;-77
2021/04/21 08:19:11;;;;;;;6.32;4.80;;;;;;;;;;4951803;29;20392;-76
2021/04/21 08:21:43;;;;;;;5.05;4.20;;;;;;;;;;4951723;29;20058;-78
2021/04/21 08:24:14;;;;;;;5.75;4.75;;;;;;;;;;4952813;29;20110;-77
2021/04/21 08:26:43;;;;;;;;;;;;;;;;;;4950611;29;20420;-78
2021/04/21 08:29:11;;;;;;;7.25;4.57;;;;;;;;;;4935325;29;20298;-79
2021/04/21 08:31:36;;;;;;;5.00;4.25;;;;;;;;;;4949508;29;20045;-80
2021/04/21 08:34:03;;;;;;;5.57;4.80;;;;;;;;;;4951800;28;20106;-76
2021/04/21 08:36:29;;;;;;;6.05;5.07;;;;;;;;;;4952526;29;20074;-76
2021/04/21 08:38:54;;;;;;;6.03;4.93;;;;;;;;;;4952266;28;20039;-79
2021/04/21 08:41:21;;;;;;;5.70;4.43;;;;;;;;;;4952130;28;20031;-78
2021/04/21 08:43:48;;;;;;;5.22;4.70;;;;;;;;;;4959692;28;20166;-81
2021/04/21 08:46:15;;;;;;;5.13;4.57;;;;;;;;;;4959930;28;20542;-78
2021/04/21 08:48:44;;;;;;;5.05;4.65;;;;;;;;;;4970017;28;20542;-78
2021/04/21 08:51:17;;;;;;;6.15;4.80;;;;;;;;;;4976086;28;20948;-77
2021/04/21 08:53:46;;;;;;;5.30;4.40;;;;;;;;;;5003435;28;20038;-77
2021/04/21 08:56:20;;;;;;;4.75;4.35;;;;;;;;;;5010069;28;20033;-79
2021/04/21 08:58:48;;;;;;;5.68;4.43;;;;;;;;;;5009659;28;20100;-79
2021/04/21 09:01:14;;;;;;;6.53;4.60;;;;;;;;;;5005608;28;20037;-78
2021/04/21 09:03:48;;;;;;;7.55;5.10;;;;;;;;;;5005368;28;20429;-79
2021/04/21 09:06:18;;;;;;;6.57;4.70;;;;;;;;;;5004429;28;20036;-77
2021/04/21 09:08:50;;;;;;;5.93;4.88;;;;;;;;;;5001375;28;20034;-79
2021/04/21 09:11:16;;;;;;;5.75;4.50;;;;;;;;;;5002548;28;20508;-77
2021/04/21 09:13:42;;;;;;;8.27;4.85;;;;;;;;;;5010428;28;20056;-76
2021/04/21 09:16:08;;;;;;;5.10;4.55;;;;;;;;;;5005359;28;20034;-76
2021/04/21 09:18:35;;;;;;;5.22;4.72;;;;;;;;;;5012459;28;20548;-77
2021/04/21 09:21:02;;;;;;;7.45;5.13;;;;;;;;;;5007623;28;20644;-77
2021/04/21 09:23:41;;;;;;;9.25;4.43;;;;;;;;;;5001960;28;20099;-79
2021/04/21 09:26:23;;;;;;;6.18;4.65;;;;;;;;;;5022054;28;20064;-79
2021/04/21 09:28:53;;;;;;;7.82;4.95;;;;;;;;;;4995724;28;20027;-77
2021/04/21 09:31:27;;;;;;;4.82;4.32;;;;;;;;;;5000334;28;20026;-78
2021/04/21 09:34:13;;;;;;;5.18;3.80;;;;;;;;;;5002126;28;20022;-77
2021/04/21 09:36:43;;;;;;;8.00;4.40;;;;;;;;;;5001134;28;20469;-78
2021/04/21 09:39:23;;;;;;;6.75;4.35;;;;;;;;;;4998192;28;20029;-78
2021/04/21 09:41:52;;;;;;;6.50;4.55;;;;;;;;;;5002678;28;20036;-78
2021/04/21 09:44:20;;;;;;;4.68;4.00;;;;;;;;;;5032346;28;20167;-78
2021/04/21 09:46:50;;;;;;;5.38;3.83;;;;;;;;;;5041809;28;20505;-78
2021/04/21 09:49:37;;;;;;;6.00;4.63;;;;;;;;;;5023534;28;20025;-78
2021/04/21 09:52:15;;;;;;;6.32;4.55;;;;;;;;;;5035786;28;20509;-78
2021/04/21 09:54:47;;;;;;;8.45;5.72;;;;;;;;;;5031634;28;20028;-78
2021/04/21 09:57:20;;;;;;;9.18;5.88;;;;;;;;;;5049394;28;20024;-78
2021/04/21 09:59:55;;;;;;;6.88;5.38;;;;;;;;;;5049184;28;20029;-79
2021/04/21 10:02:36;;;;;;;4.20;3.80;;;;;;;;;;5050723;28;20503;-77
2021/04/21 10:05:28;;;;;;;8.00;5.05;;;;;;;;;;5024805;28;20083;-75
2021/04/21 10:08:19;;;;;;;7.05;5.45;;;;;;;;;;5048166;28;20052;-78
2021/04/21 10:11:00;;;;;;;10.23;7.53;;;;;;;;;;5041910;28;20025;-76
2021/04/21 10:13:26;;;;;;;18.67;6.63;;;;;;;;;;5034424;28;20024;-77
2021/04/21 10:15:52;;;;;;;5.15;4.47;;;;;;;;;;5043912;28;20031;-78
2021/04/21 10:18:17;;;;;;;5.82;4.63;;;;;;;;;;5033817;28;20476;-78
2021/04/21 10:20:45;;;;;;;5.95;4.50;;;;;;;;;;5040259;28;20126;-78
2021/04/21 10:23:13;;;;;;;4.07;3.63;;;;;;;;;;5047298;28;20025;-78
2021/04/21 10:25:41;;;;;;;8.27;4.60;;;;;;;;;;5047452;28;20017;-78
2021/04/21 10:28:08;;;;;;;4.32;3.60;;;;;;;;;;5048542;28;20021;-78
2021/04/21 10:30:35;;;;;;;5.13;4.47;;;;;;;;;;5045677;28;20024;-80
2021/04/21 10:33:01;;;;;;;5.75;4.43;;;;;;;;;;5046863;28;20037;-77
2021/04/21 10:35:28;;;;;;;6.65;5.95;;;;;;;;;;5052674;28;20025;-77
2021/04/21 10:37:55;;;;;;;8.38;6.35;;;;;;;;;;5036206;28;20028;-76
2021/04/21 10:40:30;;;;;;;7.25;5.20;;;;;;;;;;5044953;28;20032;-78
2021/04/21 10:42:59;;;;;;;4.80;3.97;;;;;;;;;;5024161;28;20045;-77
2021/04/21 10:45:28;;;;;;;6.22;3.33;;;;;;;;;;5055581;28;20070;-77
2021/04/21 10:47:54;;;;;;;4.00;3.50;;;;;;;;;;5055965;28;20021;-76
2021/04/21 10:50:43;;;;;;;5.20;3.58;;;;;;;;;;5041561;28;20040;-76
2021/04/21 10:53:44;;;;;;;4.43;3.30;;;;;;;;;;5036566;28;20025;-77
2021/04/21 10:56:23;;;;;;;3.80;3.37;;;;;;;;;;5047560;28;20084;-76
2021/04/21 10:58:50;;;;;;;3.53;3.00;;;;;;;;;;5042653;28;20021;-76
2021/04/21 11:01:46;;;;;;;5.20;3.28;;;;;;;;;;5052821;28;20044;-77
2021/04/21 11:04:13;;;;;;;4.00;3.35;;;;;;;;;;5054689;28;20029;-78
2021/04/21 11:06:38;;;;;;;6.20;3.65;;;;;;;;;;5036205;28;20600;-78
2021/04/21 11:09:04;;;;;;;4.00;3.60;;;;;;;;;;5050514;28;20117;-75
2021/04/21 11:11:37;;;;;;;4.70;3.40;;;;;;;;;;5050658;28;20423;-76
2021/04/21 11:14:03;;;;;;;5.32;4.00;;;;;;;;;;5052935;28;20392;-78
2021/04/21 11:16:31;;;;;;;4.30;3.90;;;;;;;;;;5050837;28;20108;-78
2021/04/21 11:19:19;;;;;;;5.40;3.78;;;;;;;;;;5048390;28;20409;-76
2021/04/21 11:21:49;;;;;;;4.03;3.60;;;;;;;;;;5042085;28;20408;-78
2021/04/21 11:24:15;;;;;;;5.45;3.63;;;;;;;;;;5052505;28;20037;-76
2021/04/21 11:26:46;;;;;;;4.97;3.72;;;;;;;;;;5057771;28;20021;-77
2021/04/21 11:29:18;;;;;;;5.22;4.18;;;;;;;;;;5034152;28;20021;-78
2021/04/21 11:31:49;;;;;;;4.85;3.78;;;;;;;;;;5056264;28;20056;-76
2021/04/21 11:34:14;;;;;;;;;;;;;;;;;;5037742;28;20455;-77
2021/04/21 11:36:41;;;;;;;5.07;4.10;;;;;;;;;;5041445;28;19967;-74
2021/04/21 11:39:07;;;;;;;7.93;4.10;;;;;;;;;;5038265;28;20401;-75
2021/04/21 11:41:47;;;;;;;5.07;3.95;;;;;;;;;;5049542;28;20029;-75
2021/04/21 11:44:56;;;;;;;4.05;3.65;;;;;;;;;;5050534;28;20470;-75
2021/04/21 11:47:31;;;;;;;4.18;3.67;;;;;;;;;;5022270;28;20040;-75
2021/04/21 11:50:00;;;;;;;5.70;3.63;;;;;;;;;;5036331;28;20094;-76
2021/04/21 11:52:44;;;;;;;3.80;3.30;;;;;;;;;;5053480;28;20127;-77
2021/04/21 11:55:22;;;;;;;5.07;3.38;;;;;;;;;;5039035;28;20123;-76
2021/04/21 11:57:52;;;;;;;6.53;3.85;;;;;;;;;;5052340;28;20083;-78
2021/04/21 12:00:23;;;;;;;4.00;3.45;;;;;;;;;;5051997;28;20424;-76
2021/04/21 12:02:49;;;;;;;7.75;3.70;;;;;;;;;;5027103;28;20032;-77
2021/04/21 12:05:23;;;;;;;3.47;3.10;;;;;;;;;;5025972;28;20025;-76
2021/04/21 12:07:49;;;;;;;5.68;3.53;;;;;;;;;;5045730;28;20041;-76
2021/04/21 12:10:21;;;;;;;5.28;3.63;;;;;;;;;;5049983;28;20127;-76
2021/04/21 12:12:47;;;;;;;4.68;3.45;;;;;;;;;;5047048;28;20093;-76
2021/04/21 12:15:14;;;;;;;4.03;3.30;;;;;;;;;;5050397;28;20021;-78
2021/04/21 12:17:53;;;;;;;6.35;3.58;;;;;;;;;;5050061;28;20029;-77
2021/04/21 12:20:28;;;;;;;6.40;3.25;;;;;;;;;;5042175;28;20025;-77
2021/04/21 12:22:55;;;;;;;5.40;3.42;;;;;;;;;;5042886;28;20064;-75
2021/04/21 12:25:23;;;;;;;4.18;3.47;;;;;;;;;;5053368;28;20498;-78
2021/04/21 12:27:55;;;;;;;3.80;3.50;;;;;;;;;;5030593;28;20187;-77
2021/04/21 12:30:23;;;;;;;5.05;3.85;;;;;;;;;;5049369;28;20028;-77
2021/04/21 12:32:49;;;;;;;5.63;3.70;;;;;;;;;;5046364;28;20020;-76
2021/04/21 12:35:15;;;;;;;6.22;4.25;;;;;;;;;;5046724;28;20041;-78
2021/04/21 12:37:54;;;;;;;5.68;4.20;;;;;;;;;;5046559;28;20037;-76
2021/04/21 12:40:22;;;;;;;4.35;3.63;;;;;;;;;;5051383;28;20021;-80
2021/04/21 12:42:51;;;;;;;4.30;3.90;;;;;;;;;;5042532;28;20041;-78
2021/04/21 12:45:28;;;;;;;5.57;3.80;;;;;;;;;;5023354;28;20025;-79
2021/04/21 12:47:54;;;;;;;4.68;4.15;;;;;;;;;;5040894;28;20049;-78
2021/04/21 12:50:30;;;;;;;5.68;3.80;;;;;;;;;;5046874;28;20020;-79
2021/04/21 12:53:18;;;;;;;4.90;3.92;;;;;;;;;;5044470;28;20025;-78
2021/04/21 12:55:46;;;;;;;5.85;3.88;;;;;;;;;;5039229;28;20100;-77
2021/04/21 12:58:12;;;;;;;5.88;3.42;;;;;;;;;;5037112;28;20025;-77
2021/04/21 13:00:38;;;;;;;7.07;3.85;;;;;;;;;;5038249;28;20045;-79
2021/04/21 13:03:14;;;;;;;5.53;4.10;;;;;;;;;;5040699;28;20017;-78
2021/04/21 13:05:50;;;;;;;5.05;4.00;;;;;;;;;;5046595;28;20374;-78
2021/04/21 13:08:27;;;;;;;5.53;3.92;;;;;;;;;;5056529;28;20031;-79
2021/04/21 13:10:55;;;;;;;4.95;3.90;;;;;;;;;;5050228;28;20025;-77
2021/04/21 13:13:31;;;;;;;5.13;3.53;;;;;;;;;;5055448;28;20021;-80
2021/04/21 13:15:59;;;;;;;4.93;3.63;;;;;;;;;;5052556;28;20055;-79
2021/04/21 13:18:31;;;;;;;4.97;4.15;;;;;;;;;;5051665;28;20540;-77
2021/04/21 13:20:57;;;;;;;6.70;4.07;;;;;;;;;;5019570;28;20024;-79
2021/04/21 13:23:24;;;;;;;6.22;3.72;;;;;;;;;;5047779;28;20100;-79
2021/04/21 13:26:14;;;;;;;5.07;3.95;;;;;;;;;;5048297;28;20017;-80
2021/04/21 13:28:41;;;;;;;4.35;3.88;;;;;;;;;;5031726;28;20029;-78
2021/04/21 13:31:15;;;;;;;4.38;3.53;;;;;;;;;;5020028;28;20493;-78
2021/04/21 13:33:45;;;;;;;4.32;3.83;;;;;;;;;;5042477;28;20116;-79
2021/04/21 13:36:13;;;;;;;4.88;4.03;;;;;;;;;;5050642;28;20191;-77
2021/04/21 13:38:40;;;;;;;4.05;3.55;;;;;;;;;;5040616;28;20082;-78
2021/04/21 13:41:09;;;;;;;4.50;3.75;;;;;;;;;;5033541;28;20020;-78
2021/04/21 13:43:35;;;;;;;4.63;3.60;;;;;;;;;;5021279;28;20050;-78
2021/04/21 13:46:01;;;;;;;4.90;3.60;;;;;;;;;;5052419;28;20220;-78
2021/04/21 13:48:26;;;;;;;5.38;3.80;;;;;;;;;;5041914;28;20492;-77
2021/04/21 13:50:53;;;;;;;5.50;4.18;;;;;;;;;;5049154;28;20025;-77
2021/04/21 13:53:18;;;;;;;6.85;5.22;;;;;;;;;;5030693;28;20029;-79
2021/04/21 13:55:44;;;;;;;8.80;7.93;;;;;;;;;;5044724;28;20547;-78
2021/04/21 13:58:10;;;;;;;10.93;9.77;;;;;;;;;;5047762;28;20033;-78
2021/04/21 14:00:36;;;;;;;9.45;5.70;;;;;;;;;;5024837;28;20034;-77
2021/04/21 14:03:04;;;;;;;5.97;4.10;;;;;;;;;;5036741;28;20025;-78
2021/04/21 14:05:29;;;;;;;6.72;3.90;;;;;;;;;;5049634;28;20031;-77
2021/04/21 14:07:55;;;;;;;4.85;4.20;;;;;;;;;;5043322;28;20409;-79
2021/04/21 14:10:21;;;;;;;9.15;4.70;;;;;;;;;;5030728;28;20108;-78
2021/04/21 14:12:48;;;;;;;6.72;4.65;;;;;;;;;;5023033;28;20053;-79
2021/04/21 14:15:15;;;;;;;5.60;4.13;;;;;;;;;;5044160;28;20488;-77
2021/04/21 14:17:40;;;;;;;5.22;4.40;;;;;;;;;;5043366;28;20055;-77
2021/04/21 14:20:09;;;;;;;5.40;4.25;;;;;;;;;;5046815;28;20029;-79
2021/04/21 14:22:35;;;;;;;5.80;4.03;;;;;;;;;;5023223;28;20029;-78
2021/04/21 14:25:01;;;;;;;5.82;3.88;;;;;;;;;;5028360;28;20029;-76
2021/04/21 14:27:30;;;;;;;6.80;4.63;;;;;;;;;;5041258;28;20025;-77
2021/04/21 14:29:55;;;;;;;5.97;4.20;;;;;;;;;;5045704;28;20026;-78
2021/04/21 14:32:21;;;;;;;6.28;4.93;;;;;;;;;;5050187;28;20470;-78
2021/04/21 14:34:47;;;;;;;7.00;4.60;;;;;;;;;;5018080;28;20037;-78
2021/04/21 14:37:13;;;;;;;7.43;4.90;;;;;;;;;;5029007;28;20084;-77
2021/04/21 14:39:39;;;;;;;5.10;4.57;;;;;;;;;;5031761;28;20029;-78
2021/04/21 14:42:05;;;;;;;8.63;5.13;;;;;;;;;;5026690;28;20033;-79
2021/04/21 14:44:31;;;;;;;7.03;5.57;;;;;;;;;;5054777;28;20053;-79
2021/04/21 14:46:57;;;;;;;6.63;5.32;;;;;;;;;;5054651;28;20091;-79
2021/04/21 14:49:22;;;;;;;7.15;5.30;;;;;;;;;;5037139;28;20048;-78
2021/04/21 14:51:47;;;;;;;7.35;4.63;;;;;;;;;;5053742;28;20040;-76
2021/04/21 14:54:13;;;;;;;6.40;4.80;;;;;;;;;;5055288;28;20488;-79
2021/04/21 14:56:39;;;;;;;8.27;4.72;;;;;;;;;;5055185;28;20024;-79
2021/04/21 14:59:05;;;;;;;4.95;4.45;;;;;;;;;;5035270;28;20029;-80
2021/04/21 15:01:32;;;;;;;5.35;4.43;;;;;;;;;;5052331;28;20025;-79
2021/04/21 15:03:58;;;;;;;5.22;4.40;;;;;;;;;;5050432;28;20031;-80
2021/04/21 15:06:24;;;;;;;5.90;4.55;;;;;;;;;;5028189;28;20029;-80
2021/04/21 15:08:49;;;;;;;5.80;4.93;;;;;;;;;;5045740;28;20029;-79
2021/04/21 15:11:19;;;;;;;6.75;4.97;;;;;;;;;;5045459;28;20071;-79
2021/04/21 15:13:44;;;;;;;6.88;4.43;;;;;;;;;;5040114;28;20063;-80